Time;durP1;ratioP1;P1;durP2;ratioP2;P2;SDS_P1;SDS_P2;PMS_P1;PMS_P2;Temp;Humidity;BMP_temperature;BMP_pressure;BME280_temperature;BME280_humidity;BME280_pressure;Samples;Min_cycle;Max_cycle;Signal;HPM_P1;HPM_P2
2023/09/17 00:01:06;;;;;;;4.75;4.15;;;15.30;99.90;;;;;;5092848;28;20031;-66
2023/09/17 00:03:32;;;;;;;4.78;4.13;;;15.30;99.90;;;;;;5093391;28;20024;-66
2023/09/17 00:05:58;;;;;;;5.85;4.47;;;15.30;99.90;;;;;;5092935;28;20085;-67
2023/09/17 00:08:24;;;;;;;4.65;4.18;;;15.20;99.90;;;;;;5093303;28;20032;-66
2023/09/17 00:10:50;;;;;;;5.03;3.80;;;15.20;99.90;;;;;;5094543;28;20028;-66
2023/09/17 00:13:16;;;;;;;5.75;4.28;;;15.20;99.90;;;;;;5094553;28;20410;-67
2023/09/17 00:15:42;;;;;;;5.93;4.47;;;15.20;99.90;;;;;;5094442;28;20093;-66
2023/09/17 00:18:07;;;;;;;7.88;5.68;;;15.20;99.90;;;;;;5094232;28;20027;-66
2023/09/17 00:20:33;;;;;;;6.13;4.38;;;15.20;99.90;;;;;;5093091;28;20063;-66
2023/09/17 00:23:03;;;;;;;7.03;4.13;;;15.20;99.90;;;;;;5093008;28;20024;-66
2023/09/17 00:25:29;;;;;;;8.50;4.30;;;15.20;99.90;;;;;;5094004;28;20046;-66
2023/09/17 00:27:54;;;;;;;5.72;4.35;;;15.10;99.90;;;;;;5092875;28;20028;-67
2023/09/17 00:30:20;;;;;;;7.50;4.82;;;15.10;99.90;;;;;;5094477;28;20060;-66
2023/09/17 00:32:45;;;;;;;5.82;3.90;;;15.00;99.90;;;;;;5094092;28;20041;-66
2023/09/17 00:35:14;;;;;;;6.70;4.20;;;14.90;99.90;;;;;;5078123;28;20404;-66
2023/09/17 00:37:41;;;;;;;4.78;4.20;;;14.90;99.90;;;;;;5055844;28;20035;-66
2023/09/17 00:40:11;;;;;;;6.55;4.55;;;14.90;99.90;;;;;;5073814;28;20036;-66
2023/09/17 00:42:37;;;;;;;5.50;4.10;;;14.90;99.90;;;;;;5056021;28;20059;-66
2023/09/17 00:45:04;;;;;;;5.07;4.57;;;14.90;99.90;;;;;;5057153;28;20055;-67
2023/09/17 00:47:31;;;;;;;8.88;4.43;;;14.90;99.90;;;;;;5074875;28;20056;-67
2023/09/17 00:49:57;;;;;;;5.75;4.53;;;14.90;99.90;;;;;;5074407;28;20029;-66
2023/09/17 00:52:23;;;;;;;7.35;4.22;;;14.90;99.90;;;;;;5075069;28;20074;-66
2023/09/17 00:54:50;;;;;;;5.38;4.47;;;14.90;99.90;;;;;;5074088;28;20112;-66
2023/09/17 00:57:16;;;;;;;5.75;4.60;;;14.80;99.90;;;;;;5055923;28;20534;-66
2023/09/17 00:59:44;;;;;;;7.35;4.57;;;14.80;99.90;;;;;;5073595;28;20104;-66
2023/09/17 01:02:10;;;;;;;6.82;4.05;;;14.80;99.90;;;;;;5055556;28;20032;-66
2023/09/17 01:04:40;;;;;;;8.00;4.45;;;14.70;99.90;;;;;;5055636;28;20464;-66
2023/09/17 01:07:07;;;;;;;4.68;3.90;;;14.70;99.90;;;;;;5073651;28;20115;-66
2023/09/17 01:09:34;;;;;;;5.30;3.97;;;14.70;99.90;;;;;;5055615;28;20079;-67
2023/09/17 01:12:00;;;;;;;6.65;4.35;;;14.70;99.90;;;;;;5074791;28;20024;-66
2023/09/17 01:14:26;;;;;;;5.35;4.35;;;14.60;99.90;;;;;;5077502;28;20081;-66
2023/09/17 01:16:54;;;;;;;5.00;4.47;;;14.60;99.90;;;;;;5059486;28;20425;-66
2023/09/17 01:19:28;;;;;;;6.70;4.68;;;14.50;99.90;;;;;;5077472;28;20371;-66
2023/09/17 01:22:09;;;;;;;7.22;4.38;;;14.50;99.90;;;;;;5077279;28;20026;-66
2023/09/17 01:24:54;;;;;;;6.25;4.38;;;14.50;99.90;;;;;;5077022;28;20391;-66
2023/09/17 01:27:20;;;;;;;5.82;4.57;;;14.50;99.90;;;;;;5077540;28;20413;-66
2023/09/17 01:29:46;;;;;;;5.95;4.90;;;14.50;99.90;;;;;;5076885;28;20033;-66
2023/09/17 01:32:13;;;;;;;5.18;4.00;;;14.50;99.90;;;;;;5059213;28;20403;-66
2023/09/17 01:34:43;;;;;;;6.35;4.13;;;14.50;99.90;;;;;;5077118;28;20049;-66
2023/09/17 01:37:15;;;;;;;5.63;4.43;;;14.50;99.90;;;;;;5077333;28;20108;-66
2023/09/17 01:39:47;;;;;;;5.63;4.97;;;14.40;99.90;;;;;;5077101;28;20024;-66
2023/09/17 01:42:15;;;;;;;6.68;4.60;;;14.40;99.90;;;;;;5077031;28;20025;-66
2023/09/17 01:44:44;;;;;;;6.00;4.77;;;14.40;99.90;;;;;;5059035;28;20419;-66
2023/09/17 01:47:10;;;;;;;5.50;4.50;;;14.30;99.90;;;;;;5076962;28;20025;-66
2023/09/17 01:49:38;;;;;;;7.53;4.93;;;14.30;99.90;;;;;;5076802;28;20064;-66
2023/09/17 01:52:04;;;;;;;5.15;4.65;;;14.30;99.90;;;;;;5076442;28;20085;-66
2023/09/17 01:54:30;;;;;;;5.40;4.85;;;14.30;99.90;;;;;;5076600;28;20040;-66
2023/09/17 01:56:56;;;;;;;9.25;5.75;;;14.30;99.90;;;;;;5058579;28;20028;-66
2023/09/17 01:59:21;;;;;;;5.40;4.90;;;14.30;99.90;;;;;;5076543;28;20020;-66
2023/09/17 02:01:47;;;;;;;5.10;4.57;;;14.20;99.90;;;;;;5076283;28;20028;-66
2023/09/17 02:04:12;;;;;;;6.93;4.65;;;14.20;99.90;;;;;;5076475;28;20104;-66
2023/09/17 02:06:38;;;;;;;5.85;4.82;;;14.10;99.90;;;;;;5076508;28;20487;-66
2023/09/17 02:09:08;;;;;;;5.82;5.10;;;14.10;99.90;;;;;;5076490;28;20020;-66
2023/09/17 02:11:35;;;;;;;6.05;4.60;;;14.10;99.90;;;;;;5076450;28;20035;-66
2023/09/17 02:14:01;;;;;;;6.65;5.53;;;14.10;99.90;;;;;;5076302;28;20028;-66
2023/09/17 02:16:27;;;;;;;9.38;5.05;;;14.00;99.90;;;;;;5058170;28;20028;-66
2023/09/17 02:18:52;;;;;;;5.82;5.05;;;14.00;99.90;;;;;;5076014;28;20361;-66
2023/09/17 02:21:18;;;;;;;7.53;5.05;;;14.00;99.90;;;;;;5058222;28;20028;-66
2023/09/17 02:23:47;;;;;;;8.18;5.35;;;14.10;99.90;;;;;;5075845;28;20116;-66
2023/09/17 02:26:13;;;;;;;7.88;5.40;;;14.10;99.90;;;;;;5076180;28;20032;-60
2023/09/17 02:28:39;;;;;;;9.23;5.22;;;14.10;99.90;;;;;;5075808;28;20130;-59
2023/09/17 02:31:06;;;;;;;8.38;5.10;;;14.10;99.90;;;;;;5075862;28;20029;-59
2023/09/17 02:33:32;;;;;;;7.95;5.22;;;14.10;99.90;;;;;;5076022;28;20038;-60
2023/09/17 02:35:57;;;;;;;6.50;5.60;;;14.10;99.90;;;;;;5076057;28;20033;-60
2023/09/17 02:38:23;;;;;;;5.45;4.95;;;14.10;99.90;;;;;;5076706;28;20035;-60
2023/09/17 02:40:48;;;;;;;8.35;5.18;;;14.10;99.90;;;;;;5076152;28;20056;-60
2023/09/17 02:43:14;;;;;;;5.82;5.10;;;14.10;99.90;;;;;;5059698;28;20021;-60
2023/09/17 02:45:40;;;;;;;6.70;4.82;;;14.00;99.90;;;;;;5075876;28;20032;-59
2023/09/17 02:48:06;;;;;;;7.25;5.10;;;14.00;99.90;;;;;;5058289;28;20110;-60
2023/09/17 02:50:31;;;;;;;5.80;4.60;;;14.00;99.90;;;;;;5058231;28;20117;-60
2023/09/17 02:52:58;;;;;;;7.13;5.25;;;13.80;99.90;;;;;;5058191;28;20156;-64
2023/09/17 02:55:23;;;;;;;6.15;5.55;;;13.70;99.90;;;;;;5076844;28;20078;-60
2023/09/17 02:57:49;;;;;;;6.03;4.95;;;13.80;99.90;;;;;;5076121;28;20036;-59
2023/09/17 03:00:17;;;;;;;5.88;5.15;;;13.80;99.90;;;;;;5059975;28;20032;-66
2023/09/17 03:02:47;;;;;;;6.82;6.10;;;13.80;99.90;;;;;;5078497;28;20021;-66
2023/09/17 03:05:14;;;;;;;6.03;4.97;;;13.80;99.90;;;;;;5059334;28;20028;-66
2023/09/17 03:07:40;;;;;;;6.45;4.88;;;13.80;99.90;;;;;;5077129;28;20016;-66
2023/09/17 03:10:07;;;;;;;7.15;5.22;;;13.70;99.90;;;;;;5077267;28;20033;-66
2023/09/17 03:12:33;;;;;;;6.60;5.00;;;13.70;99.90;;;;;;5076846;28;20479;-66
2023/09/17 03:14:59;;;;;;;8.13;5.45;;;13.60;99.90;;;;;;5076412;28;20028;-66
2023/09/17 03:17:24;;;;;;;6.57;5.22;;;13.60;99.90;;;;;;5076956;28;20028;-66
2023/09/17 03:19:51;;;;;;;5.47;4.93;;;13.50;99.90;;;;;;5075948;28;20024;-66
2023/09/17 03:22:17;;;;;;;6.55;5.20;;;13.50;99.90;;;;;;5075643;28;20020;-66
2023/09/17 03:24:42;;;;;;;5.90;5.28;;;13.40;99.90;;;;;;5057481;28;20082;-66
2023/09/17 03:27:08;;;;;;;6.32;5.28;;;13.40;99.90;;;;;;5075302;28;20035;-66
2023/09/17 03:29:34;;;;;;;6.43;5.82;;;13.40;99.90;;;;;;5075271;28;20111;-66
2023/09/17 03:31:59;;;;;;;7.75;5.50;;;13.30;99.90;;;;;;5075162;28;20027;-66
2023/09/17 03:34:26;;;;;;;7.60;6.10;;;13.30;99.90;;;;;;5074695;28;20430;-66
2023/09/17 03:36:51;;;;;;;11.48;6.07;;;13.20;99.90;;;;;;5074256;28;20040;-66
2023/09/17 03:39:17;;;;;;;7.53;5.72;;;13.20;99.90;;;;;;5074763;28;20033;-66
2023/09/17 03:41:43;;;;;;;7.97;6.30;;;13.20;99.90;;;;;;5074979;28;20029;-66
2023/09/17 03:44:11;;;;;;;6.93;5.53;;;13.20;99.90;;;;;;5074648;28;20027;-66
2023/09/17 03:46:37;;;;;;;10.40;6.30;;;13.10;99.90;;;;;;5074830;28;20039;-66
2023/09/17 03:49:03;;;;;;;7.97;6.25;;;13.10;99.90;;;;;;5056614;28;20101;-66
2023/09/17 03:51:30;;;;;;;9.45;6.45;;;13.10;99.90;;;;;;5074658;28;20100;-66
2023/09/17 03:53:56;;;;;;;6.93;6.00;;;13.10;99.90;;;;;;5074502;28;20103;-66
2023/09/17 03:56:24;;;;;;;6.55;5.95;;;13.00;99.90;;;;;;5074256;28;20483;-66
2023/09/17 03:58:51;;;;;;;6.85;6.15;;;13.00;99.90;;;;;;5074539;28;20124;-67
2023/09/17 04:01:18;;;;;;;10.00;5.85;;;13.00;99.90;;;;;;5074280;28;20024;-66
2023/09/17 04:03:44;;;;;;;7.00;6.32;;;13.00;99.90;;;;;;5074283;28;20043;-66
2023/09/17 04:06:10;;;;;;;7.63;5.93;;;13.00;99.90;;;;;;5056363;28;20025;-66
2023/09/17 04:08:36;;;;;;;7.22;6.53;;;13.00;99.90;;;;;;5074228;28;20090;-66
2023/09/17 04:11:04;;;;;;;7.82;6.10;;;13.00;99.90;;;;;;5074084;28;20377;-66
2023/09/17 04:13:29;;;;;;;8.18;6.38;;;13.00;99.90;;;;;;5055794;28;20032;-66
2023/09/17 04:15:55;;;;;;;10.40;6.47;;;12.90;99.90;;;;;;5074289;28;20085;-66
2023/09/17 04:18:21;;;;;;;8.57;6.30;;;12.90;99.90;;;;;;5074014;28;20391;-66
2023/09/17 04:20:47;;;;;;;8.40;6.50;;;12.90;99.90;;;;;;5073949;28;20024;-66
2023/09/17 04:23:13;;;;;;;8.00;6.05;;;12.90;99.90;;;;;;5056012;28;20036;-66
2023/09/17 04:25:39;;;;;;;8.25;6.43;;;12.90;99.90;;;;;;5074207;28;20025;-66
2023/09/17 04:28:06;;;;;;;7.78;6.40;;;12.90;99.90;;;;;;5055949;28;20449;-66
2023/09/17 04:30:31;;;;;;;8.25;6.05;;;12.90;99.90;;;;;;5055966;28;20060;-66
2023/09/17 04:32:57;;;;;;;7.03;6.22;;;12.80;99.90;;;;;;5073592;28;20385;-66
2023/09/17 04:35:23;;;;;;;9.13;6.30;;;12.80;99.90;;;;;;5073680;28;20047;-66
2023/09/17 04:37:49;;;;;;;8.15;6.18;;;12.80;99.90;;;;;;5055843;28;20504;-66
2023/09/17 04:40:18;;;;;;;7.15;6.28;;;12.70;99.90;;;;;;5073777;28;20025;-66
2023/09/17 04:42:45;;;;;;;12.20;6.90;;;12.70;99.90;;;;;;5055800;28;20047;-66
2023/09/17 04:45:12;;;;;;;11.63;6.88;;;12.80;99.90;;;;;;5073775;28;20021;-66
2023/09/17 04:47:39;;;;;;;7.30;5.80;;;12.80;99.90;;;;;;5073381;28;20029;-66
2023/09/17 04:50:12;;;;;;;7.25;6.47;;;12.70;99.90;;;;;;5073704;28;20035;-67
2023/09/17 04:52:38;;;;;;;9.27;7.15;;;12.70;99.90;;;;;;5074255;28;20080;-67
2023/09/17 04:55:05;;;;;;;8.35;6.28;;;12.70;99.90;;;;;;5073537;28;20076;-66
2023/09/17 04:57:31;;;;;;;9.55;7.03;;;12.70;99.90;;;;;;5055741;28;20386;-66
2023/09/17 04:59:56;;;;;;;7.63;5.78;;;12.70;99.90;;;;;;5073565;28;20024;-66
2023/09/17 05:02:22;;;;;;;7.63;6.25;;;12.70;99.90;;;;;;5074040;28;20116;-66
2023/09/17 05:04:48;;;;;;;10.93;6.65;;;12.70;99.90;;;;;;5073623;28;20039;-66
2023/09/17 05:07:14;;;;;;;7.13;6.25;;;12.70;99.90;;;;;;5073270;28;20036;-66
2023/09/17 05:09:40;;;;;;;8.32;6.53;;;12.70;99.90;;;;;;5073708;28;20021;-66
2023/09/17 05:12:07;;;;;;;10.00;6.70;;;12.80;99.90;;;;;;5056049;28;20167;-66
2023/09/17 05:14:33;;;;;;;6.68;5.65;;;12.80;99.90;;;;;;5073485;28;20035;-67
2023/09/17 05:16:58;;;;;;;7.85;6.18;;;12.80;99.90;;;;;;5073647;28;20032;-66
2023/09/17 05:19:24;;;;;;;7.30;6.15;;;12.80;99.90;;;;;;5073634;28;20464;-66
2023/09/17 05:21:50;;;;;;;9.30;6.60;;;12.80;99.90;;;;;;5073467;28;20095;-66
2023/09/17 05:24:16;;;;;;;8.25;6.50;;;12.90;99.90;;;;;;5073122;28;20027;-66
2023/09/17 05:26:42;;;;;;;9.82;5.97;;;13.00;99.90;;;;;;5073414;28;20419;-66
2023/09/17 05:29:10;;;;;;;7.30;5.63;;;13.00;99.90;;;;;;5073621;28;20020;-67
2023/09/17 05:31:36;;;;;;;8.15;5.70;;;13.00;99.90;;;;;;5074183;28;20032;-66
2023/09/17 05:34:02;;;;;;;7.75;6.53;;;13.10;99.90;;;;;;5072977;28;20045;-66
2023/09/17 05:36:28;;;;;;;8.82;6.07;;;13.20;99.90;;;;;;5073460;28;20039;-66
2023/09/17 05:38:53;;;;;;;6.50;5.90;;;13.30;99.90;;;;;;5072963;28;20384;-66
2023/09/17 05:41:19;;;;;;;8.52;5.72;;;13.50;99.90;;;;;;5055820;28;20036;-67
2023/09/17 05:43:45;;;;;;;6.40;5.30;;;13.70;99.90;;;;;;5073418;28;20029;-66
2023/09/17 05:46:11;;;;;;;10.93;5.70;;;14.00;99.90;;;;;;5073487;28;20035;-66
2023/09/17 05:48:37;;;;;;;8.07;5.10;;;14.20;99.90;;;;;;5073168;28;20032;-66
2023/09/17 05:51:04;;;;;;;5.35;4.85;;;14.50;99.90;;;;;;5073370;28;20364;-66
2023/09/17 05:53:31;;;;;;;9.25;4.95;;;14.80;99.90;;;;;;5073346;28;20074;-67
2023/09/17 05:55:57;;;;;;;4.38;3.92;;;15.10;99.90;;;;;;5055237;28;20060;-67
2023/09/17 05:58:22;;;;;;;6.40;3.42;;;15.50;99.90;;;;;;5055485;28;20031;-67
2023/09/17 06:00:48;;;;;;;4.20;3.70;;;16.00;99.90;;;;;;5058850;28;20123;-60
2023/09/17 06:03:13;;;;;;;6.82;4.47;;;16.20;99.90;;;;;;5076516;28;20519;-59
2023/09/17 06:05:40;;;;;;;4.97;3.42;;;16.40;99.90;;;;;;5076202;28;20056;-59
2023/09/17 06:08:05;;;;;;;3.67;3.33;;;16.50;99.90;;;;;;5058525;28;20119;-59
2023/09/17 06:10:31;;;;;;;3.67;3.30;;;16.70;99.90;;;;;;5076430;28;20115;-59
2023/09/17 06:12:57;;;;;;;5.97;3.60;;;16.90;99.90;;;;;;5076852;28;20077;-59
2023/09/17 06:15:23;;;;;;;3.45;3.03;;;17.10;99.90;;;;;;5076358;28;20454;-59
2023/09/17 06:17:48;;;;;;;4.38;3.13;;;17.40;99.90;;;;;;5076369;28;20090;-59
2023/09/17 06:20:14;;;;;;;3.83;3.28;;;17.80;99.90;;;;;;5076353;28;20028;-58
2023/09/17 06:22:40;;;;;;;3.85;2.88;;;18.20;99.90;;;;;;5076484;28;20029;-59
2023/09/17 06:25:06;;;;;;;2.80;2.60;;;18.60;99.90;;;;;;5076232;28;20031;-59
2023/09/17 06:27:33;;;;;;;4.07;2.83;;;18.80;99.90;;;;;;5076417;28;20032;-59
2023/09/17 06:29:59;;;;;;;3.20;2.75;;;18.90;99.90;;;;;;5076303;28;20480;-59
2023/09/17 06:32:24;;;;;;;3.63;2.75;;;19.10;99.90;;;;;;5076080;28;20033;-65
2023/09/17 06:34:50;;;;;;;3.78;3.30;;;19.30;99.90;;;;;;5080343;28;20051;-68
2023/09/17 06:37:16;;;;;;;4.75;3.83;;;19.50;99.90;;;;;;5085230;28;20116;-68
2023/09/17 06:39:42;;;;;;;3.42;2.50;;;19.70;99.90;;;;;;5064228;28;20025;-68
2023/09/17 06:42:08;;;;;;;4.75;2.58;;;19.80;99.90;;;;;;5061864;28;20021;-67
2023/09/17 06:44:33;;;;;;;4.88;2.83;;;19.90;99.90;;;;;;5080367;28;20036;-69
2023/09/17 06:46:59;;;;;;;3.53;2.47;;;19.90;99.90;;;;;;5077624;28;20064;-67
2023/09/17 06:49:25;;;;;;;5.68;2.58;;;20.00;99.90;;;;;;5075432;28;20024;-65
2023/09/17 06:51:52;;;;;;;4.80;2.50;;;20.30;99.90;;;;;;5057797;28;20156;-66
2023/09/17 06:54:17;;;;;;;3.72;2.30;;;20.70;99.90;;;;;;5076005;28;20020;-65
2023/09/17 06:56:43;;;;;;;2.97;2.60;;;21.10;99.90;;;;;;5075553;28;20430;-65
2023/09/17 06:59:09;;;;;;;6.03;2.50;;;21.40;99.90;;;;;;5075468;28;20028;-65
2023/09/17 07:01:35;;;;;;;6.07;2.55;;;21.70;99.90;;;;;;5075844;28;20024;-66
2023/09/17 07:04:00;;;;;;;6.97;2.33;;;22.00;99.90;;;;;;5075822;28;20077;-66
2023/09/17 07:06:27;;;;;;;5.30;2.47;;;22.50;99.90;;;;;;5075685;28;20041;-65
2023/09/17 07:08:55;;;;;;;6.82;2.40;;;22.90;99.90;;;;;;5075293;28;20020;-65
2023/09/17 07:11:21;;;;;;;6.38;3.70;;;23.20;99.90;;;;;;5075258;28;20074;-66
2023/09/17 07:13:47;;;;;;;3.08;2.78;;;23.40;99.90;;;;;;5075414;28;20032;-67
2023/09/17 07:16:13;;;;;;;2.90;2.50;;;23.60;99.90;;;;;;5057489;28;20036;-65
2023/09/17 07:18:39;;;;;;;4.85;2.80;;;23.80;99.90;;;;;;5075305;28;20033;-65
2023/09/17 07:21:05;;;;;;;4.80;2.88;;;23.90;99.90;;;;;;5075379;28;20070;-65
2023/09/17 07:23:30;;;;;;;4.30;2.80;;;24.00;99.90;;;;;;5074769;28;20024;-65
2023/09/17 07:25:56;;;;;;;3.42;2.80;;;24.10;99.90;;;;;;5057079;28;20396;-65
2023/09/17 07:28:21;;;;;;;4.72;2.70;;;24.40;99.50;;;;;;5075276;28;20029;-65
2023/09/17 07:30:53;;;;;;;3.20;2.90;;;24.60;98.70;;;;;;5074901;28;20078;-65
2023/09/17 07:33:19;;;;;;;2.60;2.20;;;24.90;98.10;;;;;;5075041;28;20028;-65
2023/09/17 07:35:44;;;;;;;3.33;2.75;;;25.20;97.60;;;;;;5074663;28;20036;-65
2023/09/17 07:38:10;;;;;;;2.90;2.67;;;25.40;96.60;;;;;;5074735;28;20031;-65
2023/09/17 07:40:36;;;;;;;3.00;2.80;;;25.40;96.50;;;;;;5056848;28;20028;-66
2023/09/17 07:43:04;;;;;;;2.88;2.53;;;25.60;96.30;;;;;;5074982;28;20035;-65
2023/09/17 07:45:33;;;;;;;3.80;2.78;;;26.00;95.40;;;;;;5074696;28;20024;-65
2023/09/17 07:47:59;;;;;;;5.30;2.50;;;26.10;94.90;;;;;;5074567;28;20025;-67
2023/09/17 07:50:24;;;;;;;4.28;3.15;;;26.20;94.50;;;;;;5074499;28;20070;-65
2023/09/17 07:52:50;;;;;;;2.65;2.20;;;26.40;94.10;;;;;;5074155;28;20055;-64
2023/09/17 07:55:18;;;;;;;2.72;2.50;;;26.50;93.40;;;;;;5074103;28;20116;-67
2023/09/17 07:57:46;;;;;;;3.47;2.20;;;26.90;92.20;;;;;;5056615;28;20111;-67
2023/09/17 08:00:15;;;;;;;3.67;2.50;;;27.20;91.60;;;;;;5074636;28;20031;-65
2023/09/17 08:02:44;;;;;;;4.18;2.53;;;27.30;91.20;;;;;;5074260;28;20020;-65
2023/09/17 08:05:13;;;;;;;2.88;2.25;;;27.50;90.30;;;;;;5056342;28;20040;-67
2023/09/17 08:07:41;;;;;;;7.93;2.47;;;27.40;90.10;;;;;;5056974;28;20387;-65
2023/09/17 08:10:08;;;;;;;2.80;2.58;;;27.60;88.90;;;;;;5074548;28;20423;-65
2023/09/17 08:12:33;;;;;;;4.03;2.67;;;27.70;88.60;;;;;;5056431;28;20044;-65
2023/09/17 08:14:59;;;;;;;4.35;2.55;;;27.80;87.50;;;;;;5074129;28;20412;-67
2023/09/17 08:17:25;;;;;;;2.30;2.20;;;28.10;87.40;;;;;;5056706;28;20479;-66
2023/09/17 08:19:51;;;;;;;2.60;2.40;;;28.40;85.80;;;;;;5074257;28;20108;-68
2023/09/17 08:22:17;;;;;;;3.15;2.53;;;28.60;84.70;;;;;;5073739;28;20027;-65
2023/09/17 08:24:43;;;;;;;4.72;2.88;;;28.60;84.00;;;;;;5055973;28;20028;-65
2023/09/17 08:27:09;;;;;;;3.40;3.08;;;28.90;83.00;;;;;;5074120;28;20098;-67
2023/09/17 08:29:34;;;;;;;3.55;2.80;;;29.00;81.70;;;;;;5056143;28;20029;-65
2023/09/17 08:32:01;;;;;;;3.22;2.78;;;28.90;81.10;;;;;;5073992;28;20024;-67
2023/09/17 08:34:26;;;;;;;3.00;2.80;;;28.90;81.20;;;;;;5073752;28;20150;-67
2023/09/17 08:36:53;;;;;;;3.40;3.20;;;28.70;79.90;;;;;;5074044;28;20384;-67
2023/09/17 08:39:20;;;;;;;3.97;3.45;;;28.90;80.20;;;;;;5074059;28;20031;-67
2023/09/17 08:41:47;;;;;;;5.30;3.05;;;29.00;80.00;;;;;;5073955;28;20024;-67
2023/09/17 08:44:14;;;;;;;4.53;3.10;;;29.50;78.30;;;;;;5056325;28;20024;-68
2023/09/17 08:46:40;;;;;;;3.70;3.40;;;30.10;76.30;;;;;;5073731;28;20056;-67
2023/09/17 08:49:06;;;;;;;3.15;2.78;;;30.10;75.20;;;;;;5056295;28;20044;-67
2023/09/17 08:51:37;;;;;;;3.78;2.85;;;30.20;75.30;;;;;;5074056;28;20021;-67
2023/09/17 08:54:08;;;;;;;3.72;3.40;;;30.80;74.10;;;;;;5074086;28;20103;-67
2023/09/17 08:56:37;;;;;;;4.13;2.80;;;31.10;72.10;;;;;;5055814;28;20043;-67
2023/09/17 08:59:34;;;;;;;2.80;2.60;;;31.60;70.30;;;;;;5056044;28;20449;-67
2023/09/17 09:02:05;;;;;;;4.70;3.07;;;31.90;68.70;;;;;;5053824;28;20036;-68
2023/09/17 09:04:34;;;;;;;4.53;3.20;;;32.00;67.20;;;;;;5073760;28;20421;-68
2023/09/17 09:07:01;;;;;;;4.78;3.22;;;32.30;66.50;;;;;;5073916;28;20033;-67
2023/09/17 09:09:28;;;;;;;4.03;3.28;;;32.50;65.40;;;;;;5073510;28;20465;-68
2023/09/17 09:11:53;;;;;;;3.42;3.08;;;32.60;64.40;;;;;;5055906;28;20079;-68
2023/09/17 09:14:22;;;;;;;3.15;2.88;;;32.80;63.90;;;;;;5073921;28;20032;-68
2023/09/17 09:16:48;;;;;;;2.97;2.78;;;33.10;64.10;;;;;;5055803;28;20056;-67
2023/09/17 09:19:13;;;;;;;3.33;2.58;;;33.40;62.30;;;;;;5073665;28;20503;-68
2023/09/17 09:21:39;;;;;;;3.13;2.92;;;33.80;61.40;;;;;;5055913;28;20028;-67
2023/09/17 09:24:05;;;;;;;5.68;3.28;;;33.70;60.50;;;;;;5073671;28;20522;-68
2023/09/17 09:26:38;;;;;;;2.70;2.50;;;33.70;60.40;;;;;;5073508;28;20033;-68
2023/09/17 09:29:05;;;;;;;2.80;2.60;;;34.00;59.70;;;;;;5055924;28;20111;-68
2023/09/17 09:31:32;;;;;;;2.53;2.30;;;34.10;58.80;;;;;;5073735;28;20082;-68
2023/09/17 09:34:02;;;;;;;2.50;2.40;;;34.30;57.80;;;;;;5074318;28;20048;-68
2023/09/17 09:36:31;;;;;;;5.43;2.63;;;34.00;58.00;;;;;;5077364;28;20078;-68
2023/09/17 09:38:57;;;;;;;4.63;3.00;;;34.20;57.70;;;;;;5058504;28;20044;-68
2023/09/17 09:41:25;;;;;;;3.45;2.58;;;34.20;57.20;;;;;;5077239;28;20024;-68
2023/09/17 09:43:52;;;;;;;8.23;2.40;;;34.20;57.40;;;;;;5077454;28;20068;-68
2023/09/17 09:46:18;;;;;;;2.33;2.00;;;34.50;56.70;;;;;;5077377;28;20147;-68
2023/09/17 09:48:45;;;;;;;2.63;2.53;;;34.90;56.00;;;;;;5077342;28;20074;-68
2023/09/17 09:51:10;;;;;;;2.33;2.00;;;35.30;54.50;;;;;;5077237;28;20025;-68
2023/09/17 09:53:36;;;;;;;3.15;2.08;;;35.60;53.80;;;;;;5059669;28;20141;-69
2023/09/17 09:56:07;;;;;;;2.33;2.13;;;35.40;53.70;;;;;;5059436;28;20499;-68
2023/09/17 09:58:33;;;;;;;2.50;2.40;;;35.30;54.40;;;;;;5058464;28;20028;-68
2023/09/17 10:01:02;;;;;;;2.85;2.30;;;35.40;53.80;;;;;;5076480;28;20028;-69
2023/09/17 10:03:28;;;;;;;5.03;2.38;;;35.60;53.30;;;;;;5058559;28;20029;-69
2023/09/17 10:06:03;;;;;;;2.70;2.17;;;35.70;52.80;;;;;;5076727;28;20427;-68
2023/09/17 10:08:30;;;;;;;3.28;2.25;;;35.70;52.50;;;;;;5058564;28;20029;-68
2023/09/17 10:10:55;;;;;;;2.22;2.00;;;35.70;52.10;;;;;;5076234;28;20028;-68
2023/09/17 10:13:21;;;;;;;2.67;2.47;;;35.60;52.50;;;;;;5058552;28;20115;-68
2023/09/17 10:15:47;;;;;;;2.22;2.13;;;35.30;52.70;;;;;;5076391;28;20040;-68
2023/09/17 10:18:14;;;;;;;3.58;2.15;;;35.00;52.90;;;;;;5076230;28;20440;-68
2023/09/17 10:20:42;;;;;;;4.57;2.45;;;35.00;53.10;;;;;;5058303;28;20464;-68
2023/09/17 10:23:09;;;;;;;;;;;35.20;52.10;;;;;;5076864;28;20373;-68
2023/09/17 10:25:36;;;;;;;4.53;2.15;;;35.30;51.80;;;;;;5076353;28;19908;-68
2023/09/17 10:28:02;;;;;;;2.17;2.00;;;35.50;51.30;;;;;;5076613;28;20036;-67
2023/09/17 10:30:29;;;;;;;2.38;2.10;;;35.60;51.00;;;;;;5076539;28;20266;-68
2023/09/17 10:32:57;;;;;;;2.50;2.13;;;35.40;50.40;;;;;;5076731;28;20028;-68
2023/09/17 10:35:22;;;;;;;;;;;35.40;50.80;;;;;;5076855;28;20067;-69
2023/09/17 10:37:49;;;;;;;5.63;2.10;;;35.70;50.50;;;;;;5058361;28;20386;-65
2023/09/17 10:40:15;;;;;;;2.00;1.90;;;35.90;50.40;;;;;;5058055;28;20024;-65
2023/09/17 10:42:43;;;;;;;2.33;2.10;;;35.50;50.40;;;;;;5057626;28;20070;-65
2023/09/17 10:45:12;;;;;;;2.33;2.10;;;35.30;50.20;;;;;;5075478;28;20558;-67
2023/09/17 10:47:44;;;;;;;2.05;1.85;;;35.20;50.80;;;;;;5057673;28;20677;-67
2023/09/17 10:50:10;;;;;;;3.25;2.05;;;35.30;50.50;;;;;;5075989;28;20017;-67
2023/09/17 10:52:36;;;;;;;2.20;2.10;;;35.20;51.30;;;;;;5057545;28;20115;-66
2023/09/17 10:55:06;;;;;;;2.70;2.50;;;35.40;50.20;;;;;;5057708;28;20036;-67
2023/09/17 10:57:43;;;;;;;2.70;2.50;;;35.50;50.10;;;;;;5075609;28;20029;-66
2023/09/17 11:00:14;;;;;;;3.27;2.40;;;35.60;50.30;;;;;;5075902;28;20033;-67
2023/09/17 11:02:48;;;;;;;2.00;1.90;;;35.60;50.50;;;;;;5076053;28;20020;-66
2023/09/17 11:05:19;;;;;;;2.15;2.05;;;35.50;50.60;;;;;;5057680;28;20472;-66
2023/09/17 11:07:45;;;;;;;2.65;2.42;;;35.30;50.00;;;;;;5057860;28;20032;-67
2023/09/17 11:10:12;;;;;;;9.82;2.45;;;34.70;50.70;;;;;;5079243;28;20025;-67
2023/09/17 11:12:38;;;;;;;2.13;2.03;;;34.60;51.00;;;;;;5066017;28;20123;-68
2023/09/17 11:15:06;;;;;;;2.10;2.00;;;35.10;51.00;;;;;;5064382;28;20105;-67
2023/09/17 11:17:34;;;;;;;2.00;1.90;;;35.60;50.50;;;;;;5081434;28;20149;-67
2023/09/17 11:19:59;;;;;;;;;;;35.90;49.00;;;;;;5081610;28;20383;-67
2023/09/17 11:22:30;;;;;;;5.03;2.20;;;35.80;48.90;;;;;;5059525;28;20359;-66
2023/09/17 11:24:56;;;;;;;2.10;2.00;;;35.90;50.10;;;;;;5075077;28;20031;-66
2023/09/17 11:27:48;;;;;;;5.45;2.28;;;35.80;49.20;;;;;;5056964;28;20025;-67
2023/09/17 11:30:16;;;;;;;2.05;1.95;;;35.60;49.20;;;;;;5075420;28;20024;-67
2023/09/17 11:32:53;;;;;;;1.90;1.80;;;35.80;49.10;;;;;;5075553;28;20024;-64
2023/09/17 11:35:24;;;;;;;2.38;1.98;;;35.70;49.50;;;;;;5086899;28;20073;-63
2023/09/17 11:37:52;;;;;;;2.30;2.10;;;35.70;49.50;;;;;;5095257;28;20418;-64
2023/09/17 11:40:19;;;;;;;2.20;1.90;;;35.90;50.20;;;;;;5094866;28;20028;-64
2023/09/17 11:42:50;;;;;;;2.90;1.80;;;36.00;49.60;;;;;;5090903;28;20028;-64
2023/09/17 11:45:16;;;;;;;3.35;1.95;;;35.80;49.10;;;;;;5095067;28;20262;-64
2023/09/17 11:47:44;;;;;;;2.28;2.00;;;35.80;50.10;;;;;;5093993;28;20024;-64
2023/09/17 11:50:13;;;;;;;4.25;2.38;;;35.50;49.30;;;;;;5093613;28;20114;-64
2023/09/17 11:52:41;;;;;;;1.95;1.85;;;35.70;49.20;;;;;;5093477;28;20032;-64
2023/09/17 11:55:21;;;;;;;2.90;1.90;;;35.60;49.10;;;;;;5093724;28;20043;-64
2023/09/17 11:57:47;;;;;;;1.98;1.88;;;35.80;49.60;;;;;;5094490;28;20103;-64
2023/09/17 12:00:28;;;;;;;2.10;2.00;;;35.70;50.20;;;;;;5093334;28;20118;-64
2023/09/17 12:02:55;;;;;;;2.35;2.25;;;35.50;50.10;;;;;;5093412;28;20020;-65
2023/09/17 12:05:24;;;;;;;1.95;1.73;;;35.20;49.90;;;;;;5094269;28;20382;-64
2023/09/17 12:07:52;;;;;;;1.73;1.73;;;35.30;50.20;;;;;;5094155;28;20078;-64
2023/09/17 12:10:21;;;;;;;3.28;2.20;;;35.60;49.50;;;;;;5094465;28;20026;-64
2023/09/17 12:12:47;;;;;;;3.80;2.50;;;35.40;48.60;;;;;;5094417;28;20035;-64
2023/09/17 12:15:15;;;;;;;2.33;1.80;;;35.40;48.30;;;;;;5092707;28;20028;-63
2023/09/17 12:17:43;;;;;;;1.60;1.58;;;35.20;48.60;;;;;;5093099;28;20032;-64
2023/09/17 12:20:20;;;;;;;2.28;1.83;;;35.30;48.50;;;;;;5093362;28;20163;-64
2023/09/17 12:23:04;;;;;;;2.55;2.00;;;35.00;48.20;;;;;;5093442;28;20043;-64
2023/09/17 12:25:43;;;;;;;2.30;2.10;;;35.10;49.10;;;;;;5094878;28;20028;-64
2023/09/17 12:28:09;;;;;;;2.05;1.95;;;34.90;48.70;;;;;;5094438;28;20173;-63
2023/09/17 12:30:35;;;;;;;1.80;1.70;;;35.00;48.70;;;;;;5094700;28;20028;-64
2023/09/17 12:33:01;;;;;;;2.30;2.20;;;35.20;48.20;;;;;;5093815;28;20103;-64
2023/09/17 12:35:28;;;;;;;2.10;2.00;;;35.00;48.60;;;;;;5092519;28;20093;-63
2023/09/17 12:37:59;;;;;;;2.03;1.83;;;34.80;48.70;;;;;;5094153;28;20028;-64
2023/09/17 12:40:26;;;;;;;3.55;2.10;;;34.80;49.80;;;;;;5092686;28;20035;-64
2023/09/17 12:42:52;;;;;;;2.17;2.08;;;35.10;49.70;;;;;;5093731;28;20028;-72
2023/09/17 12:45:19;;;;;;;3.05;2.30;;;35.10;48.40;;;;;;5093908;28;20097;-73
2023/09/17 12:47:45;;;;;;;1.90;1.80;;;35.20;49.10;;;;;;5093949;28;20456;-73